Time;durP1;ratioP1;P1;durP2;ratioP2;P2;SDS_P1;SDS_P2;PMS_P1;PMS_P2;Temp;Humidity;BMP_temperature;BMP_pressure;BME280_temperature;BME280_humidity;BME280_pressure;Samples;Min_cycle;Max_cycle;Signal;HPM_P1;HPM_P2
2022/12/18 00:08:46;;;;;;;44.50;13.80;;;-2.70;99.90;;;;;;6246157;22;20027;-89
2022/12/18 00:11:15;;;;;;;44.63;13.97;;;-2.70;99.90;;;;;;6194992;23;20016;-89
2022/12/18 00:13:41;;;;;;;33.13;11.30;;;-2.70;99.90;;;;;;6194789;23;20251;-90
2022/12/18 00:16:10;;;;;;;41.30;12.90;;;-2.80;99.90;;;;;;6195082;23;20027;-89
2022/12/18 00:18:35;;;;;;;38.47;13.65;;;-2.80;99.90;;;;;;6194928;23;20020;-88
2022/12/18 00:21:04;;;;;;;40.47;13.00;;;-2.80;99.90;;;;;;6170210;23;20031;-88
2022/12/18 00:23:41;;;;;;;32.50;11.43;;;-2.80;99.90;;;;;;6195505;23;20483;-89
2022/12/18 00:26:10;;;;;;;37.10;11.67;;;-2.80;99.90;;;;;;6219993;23;20314;-89
2022/12/18 00:28:36;;;;;;;36.47;13.63;;;-2.80;99.90;;;;;;6194901;23;20016;-88
2022/12/18 00:31:04;;;;;;;37.45;11.90;;;-2.80;99.90;;;;;;6219916;23;20103;-88
2022/12/18 00:33:30;;;;;;;32.10;11.27;;;-2.80;99.90;;;;;;6194901;23;20008;-89
2022/12/18 00:36:22;;;;;;;37.13;12.18;;;-2.90;99.90;;;;;;6194767;23;20066;-89
2022/12/18 00:38:49;;;;;;;35.70;11.93;;;-2.80;99.90;;;;;;6195203;23;20433;-89
2022/12/18 00:44:01;;;;;;;38.33;12.05;;;-2.80;99.90;;;;;;6177752;23;20032;-89
2022/12/18 00:46:27;;;;;;;37.80;13.35;;;-2.80;99.90;;;;;;6194743;23;20020;-88
2022/12/18 00:48:52;;;;;;;34.97;12.73;;;-2.80;99.90;;;;;;6170079;23;20074;-89
2022/12/18 00:51:18;;;;;;;38.42;13.15;;;-2.80;99.90;;;;;;6194924;23;20016;-89
2022/12/18 00:53:44;;;;;;;33.58;11.90;;;-2.80;99.90;;;;;;6145144;23;20026;-89
2022/12/18 00:56:09;;;;;;;34.35;11.77;;;-2.80;99.90;;;;;;6145565;23;20027;-89
2022/12/18 00:58:35;;;;;;;32.65;10.57;;;-2.80;99.90;;;;;;6169953;23;20031;-90
2022/12/18 01:01:01;;;;;;;38.53;12.63;;;-2.90;99.90;;;;;;6219388;23;20023;-88
2022/12/18 01:03:26;;;;;;;35.08;12.27;;;-2.90;99.90;;;;;;6194572;23;20023;-89
2022/12/18 01:05:52;;;;;;;39.88;13.00;;;-2.90;99.90;;;;;;6169802;23;20016;-89
2022/12/18 01:08:19;;;;;;;38.25;12.52;;;-2.90;99.90;;;;;;6145817;23;20070;-88
2022/12/18 01:10:45;;;;;;;32.95;10.60;;;-2.90;99.90;;;;;;6145410;23;20017;-89
2022/12/18 01:13:10;;;;;;;44.80;13.25;;;-2.90;99.90;;;;;;6194283;23;20073;-88
2022/12/18 01:15:36;;;;;;;39.83;13.40;;;-3.00;99.90;;;;;;6145176;23;20020;-89
2022/12/18 01:18:02;;;;;;;34.95;11.50;;;-3.00;99.90;;;;;;6194689;23;20028;-88
2022/12/18 01:20:27;;;;;;;32.05;11.70;;;-3.00;99.90;;;;;;6194571;23;20013;-89
2022/12/18 01:22:53;;;;;;;34.92;12.32;;;-2.90;99.90;;;;;;6194503;23;20012;-88
2022/12/18 01:25:19;;;;;;;33.97;12.30;;;-3.00;99.90;;;;;;6170006;23;20028;-88
2022/12/18 01:27:44;;;;;;;35.92;12.00;;;-3.00;99.90;;;;;;6221078;23;20016;-89
2022/12/18 01:30:11;;;;;;;34.53;12.63;;;-3.00;99.90;;;;;;6196904;23;20027;-88
2022/12/18 01:32:36;;;;;;;38.40;13.27;;;-3.00;99.90;;;;;;6195769;23;20012;-87
2022/12/18 01:35:02;;;;;;;34.08;10.90;;;-3.00;99.90;;;;;;6197495;23;20043;-87
2022/12/18 01:37:28;;;;;;;32.40;12.07;;;-3.00;99.90;;;;;;6219577;23;20020;-88
2022/12/18 01:39:56;;;;;;;36.75;13.60;;;-3.10;99.90;;;;;;6169389;23;20070;-89
2022/12/18 01:42:22;;;;;;;30.75;10.73;;;-3.10;99.90;;;;;;6194397;23;20119;-88
2022/12/18 01:45:13;;;;;;;34.40;11.88;;;-3.20;99.90;;;;;;6194039;23;20473;-88
2022/12/18 01:47:43;;;;;;;32.47;11.73;;;-3.20;99.90;;;;;;6194172;23;20039;-88
2022/12/18 01:50:17;;;;;;;34.60;12.02;;;-3.20;99.90;;;;;;6194165;23;20055;-89
2022/12/18 01:52:46;;;;;;;39.45;12.13;;;-3.20;99.90;;;;;;6244234;23;20058;-88
2022/12/18 01:55:14;;;;;;;33.45;12.25;;;-3.20;99.90;;;;;;6194778;23;20396;-89
2022/12/18 01:57:41;;;;;;;29.13;11.35;;;-3.30;99.90;;;;;;6194003;23;20067;-89
2022/12/18 02:00:16;;;;;;;30.13;12.65;;;-3.30;99.90;;;;;;6193978;23;20027;-88
2022/12/18 02:02:43;;;;;;;33.47;10.65;;;-3.30;99.90;;;;;;6193699;23;20013;-88
2022/12/18 02:05:11;;;;;;;34.88;11.25;;;-3.40;99.90;;;;;;6193963;23;20016;-88
2022/12/18 02:07:52;;;;;;;33.88;12.23;;;-3.30;99.90;;;;;;6194026;23;20016;-88
2022/12/18 02:10:38;;;;;;;38.85;13.18;;;-3.40;99.90;;;;;;6213143;23;20020;-88
2022/12/18 02:13:27;;;;;;;31.25;11.80;;;-3.40;99.90;;;;;;6219613;23;20453;-88
2022/12/18 02:15:55;;;;;;;31.63;10.48;;;-3.40;99.90;;;;;;6221111;23;20074;-89
2022/12/18 02:18:27;;;;;;;33.20;12.02;;;-3.50;99.90;;;;;;6221078;23;20008;-88
2022/12/18 02:21:17;;;;;;;36.60;11.48;;;-3.50;99.90;;;;;;6221017;23;20094;-89
2022/12/18 02:24:27;;;;;;;34.53;11.35;;;-3.50;99.90;;;;;;6221138;23;20059;-89
2022/12/18 02:27:01;;;;;;;32.30;10.23;;;-3.50;99.90;;;;;;6223167;23;20016;-88
2022/12/18 02:29:37;;;;;;;38.13;13.50;;;-3.60;99.90;;;;;;6221091;23;20074;-88
2022/12/18 02:32:07;;;;;;;32.90;11.48;;;-3.60;99.90;;;;;;6246376;23;20034;-88
2022/12/18 02:34:37;;;;;;;34.95;11.70;;;-3.60;99.90;;;;;;6220990;23;20410;-88
2022/12/18 02:37:06;;;;;;;35.15;11.63;;;-3.60;99.90;;;;;;6246105;23;20337;-88
2022/12/18 02:39:34;;;;;;;37.88;13.30;;;-3.70;99.90;;;;;;6220721;23;20048;-88
2022/12/18 02:42:02;;;;;;;39.28;12.27;;;-3.70;99.90;;;;;;6220897;23;20016;-88
2022/12/18 02:44:27;;;;;;;36.08;13.15;;;-3.80;99.90;;;;;;6220513;23;20512;-88
2022/12/18 02:46:54;;;;;;;31.65;11.60;;;-3.80;99.90;;;;;;6220937;23;20044;-89
2022/12/18 02:49:44;;;;;;;33.40;11.52;;;-3.80;99.90;;;;;;6220903;23;20012;-88
2022/12/18 02:52:41;;;;;;;32.38;12.10;;;-3.80;99.90;;;;;;6220495;23;20042;-88
2022/12/18 02:55:13;;;;;;;34.63;12.50;;;-3.80;99.90;;;;;;6220590;23;20027;-88
2022/12/18 02:57:56;;;;;;;30.77;11.63;;;-3.90;99.90;;;;;;6245847;23;20095;-88
2022/12/18 03:00:29;;;;;;;36.25;12.60;;;-3.90;99.90;;;;;;6220794;23;20463;-88
2022/12/18 03:03:07;;;;;;;35.20;12.50;;;-3.90;99.90;;;;;;6245985;23;20016;-88
2022/12/18 03:06:06;;;;;;;41.55;12.90;;;-3.90;99.90;;;;;;6220761;23;20512;-89
2022/12/18 03:08:39;;;;;;;33.10;11.40;;;-3.90;99.90;;;;;;6220477;23;20051;-89
2022/12/18 03:11:11;;;;;;;34.83;13.50;;;-4.00;99.90;;;;;;6195611;23;20016;-90
2022/12/18 03:13:50;;;;;;;44.50;13.90;;;-3.90;99.90;;;;;;6195752;23;20125;-89
2022/12/18 03:16:22;;;;;;;33.70;12.57;;;-3.90;99.90;;;;;;6195527;23;20519;-88
2022/12/18 03:19:01;;;;;;;36.97;14.38;;;-3.90;99.90;;;;;;6220141;23;20349;-88
2022/12/18 03:21:34;;;;;;;42.17;13.55;;;-4.00;99.90;;;;;;6195600;23;20018;-89
2022/12/18 03:24:03;;;;;;;37.03;14.68;;;-3.90;99.90;;;;;;6195472;23;20024;-89
2022/12/18 03:26:30;;;;;;;37.22;12.50;;;-4.00;99.90;;;;;;6220504;23;20446;-89
2022/12/18 03:28:58;;;;;;;;;;;-3.90;99.90;;;;;;6196138;23;20020;-88
2022/12/18 03:31:27;;;;;;;41.08;13.45;;;-3.90;99.90;;;;;;6195682;23;19916;-88
2022/12/18 03:33:55;;;;;;;42.15;14.13;;;-3.90;99.90;;;;;;6220501;23;20449;-88
2022/12/18 03:36:21;;;;;;;38.40;13.10;;;-3.90;99.90;;;;;;6220556;23;20020;-89
2022/12/18 03:38:47;;;;;;;36.35;13.38;;;-3.90;99.90;;;;;;6195417;23;20012;-88
2022/12/18 03:41:25;;;;;;;38.97;14.02;;;-3.90;99.90;;;;;;6170589;23;20515;-88
2022/12/18 03:44:20;;;;;;;40.75;15.05;;;-4.00;99.90;;;;;;6195219;23;20106;-89
2022/12/18 03:47:04;;;;;;;41.65;14.70;;;-4.00;99.90;;;;;;6195518;23;20016;-88
2022/12/18 03:49:52;;;;;;;37.03;14.93;;;-4.00;99.90;;;;;;6221316;23;20038;-90
2022/12/18 03:52:30;;;;;;;39.97;13.10;;;-4.00;99.90;;;;;;6220442;23;20387;-89
2022/12/18 03:54:58;;;;;;;41.90;14.88;;;-4.10;99.90;;;;;;6196318;23;20019;-89
2022/12/18 03:57:28;;;;;;;39.83;13.73;;;-4.10;99.90;;;;;;6195345;23;20016;-88
2022/12/18 04:00:08;;;;;;;39.83;15.68;;;-4.10;99.90;;;;;;6195000;23;20048;-88
2022/12/18 04:02:36;;;;;;;39.47;14.52;;;-4.10;99.90;;;;;;6219843;23;20016;-88
2022/12/18 04:05:05;;;;;;;38.00;14.38;;;-4.10;99.90;;;;;;6220084;23;20027;-89
2022/12/18 04:07:32;;;;;;;40.78;14.13;;;-4.10;99.90;;;;;;6220130;23;20012;-88
2022/12/18 04:10:00;;;;;;;;;;;-4.10;99.90;;;;;;6236031;23;20371;-88
2022/12/18 04:12:28;;;;;;;41.65;14.63;;;-4.10;99.90;;;;;;6245297;23;19915;-88
2022/12/18 04:14:54;;;;;;;36.13;15.65;;;-4.10;99.90;;;;;;6219884;23;20012;-88
2022/12/18 04:17:20;;;;;;;39.47;15.55;;;-4.10;99.90;;;;;;6220006;23;20055;-88
2022/12/18 04:19:45;;;;;;;38.60;14.25;;;-4.20;99.90;;;;;;6220021;23;20012;-89
2022/12/18 04:22:11;;;;;;;41.63;14.60;;;-4.10;99.90;;;;;;6219921;23;20039;-89
2022/12/18 04:24:37;;;;;;;41.90;14.43;;;-4.20;99.90;;;;;;6219685;23;20016;-88
2022/12/18 04:27:03;;;;;;;37.83;14.15;;;-4.20;99.90;;;;;;6194886;23;20016;-88
2022/12/18 04:29:29;;;;;;;38.60;13.77;;;-4.20;99.90;;;;;;6195048;23;20020;-89
2022/12/18 04:31:55;;;;;;;40.97;14.40;;;-4.20;99.90;;;;;;6219955;23;20051;-88
2022/12/18 04:34:21;;;;;;;36.35;13.30;;;-4.20;99.90;;;;;;6194039;23;20381;-90
2022/12/18 04:36:47;;;;;;;42.23;15.07;;;-4.30;99.90;;;;;;6220005;23;20023;-88
2022/12/18 04:39:14;;;;;;;33.13;13.02;;;-4.30;99.90;;;;;;6245002;23;20255;-88
2022/12/18 04:41:41;;;;;;;39.22;15.00;;;-4.30;99.90;;;;;;6194609;23;20020;-88
2022/12/18 04:44:06;;;;;;;36.55;14.15;;;-4.30;99.90;;;;;;6219581;23;20023;-88
2022/12/18 04:46:32;;;;;;;44.83;14.48;;;-4.30;99.90;;;;;;6219451;23;20012;-87
2022/12/18 04:48:58;;;;;;;37.00;14.27;;;-4.30;99.90;;;;;;6219548;23;20516;-89
2022/12/18 04:51:24;;;;;;;37.55;14.15;;;-4.30;99.90;;;;;;6194584;23;20066;-89
2022/12/18 04:53:50;;;;;;;34.42;13.43;;;-4.40;99.90;;;;;;6220033;23;20098;-90
2022/12/18 04:56:16;;;;;;;41.97;14.30;;;-4.40;99.90;;;;;;6219829;23;20464;-89
2022/12/18 04:58:43;;;;;;;30.73;13.33;;;-4.40;99.90;;;;;;6219798;23;20020;-88
2022/12/18 05:01:10;;;;;;;39.38;13.10;;;-4.40;99.90;;;;;;6219695;23;20087;-89
2022/12/18 05:03:37;;;;;;;34.40;13.82;;;-4.40;99.90;;;;;;6219780;23;20273;-88
2022/12/18 05:06:04;;;;;;;37.53;13.52;;;-4.50;99.90;;;;;;6219672;23;20142;-88
2022/12/18 05:08:29;;;;;;;36.70;13.35;;;-4.40;99.90;;;;;;6219213;23;20020;-88
2022/12/18 05:11:15;;;;;;;34.75;13.38;;;-4.40;99.90;;;;;;6194546;23;20392;-88
2022/12/18 05:13:42;;;;;;;37.15;13.32;;;-4.50;99.90;;;;;;6194578;23;20016;-88
2022/12/18 05:16:08;;;;;;;37.03;12.88;;;-4.50;99.90;;;;;;6219552;23;20016;-89
2022/12/18 05:18:34;;;;;;;42.00;12.53;;;-4.50;99.90;;;;;;6169428;23;20070;-89
2022/12/18 05:21:00;;;;;;;33.85;12.60;;;-4.60;99.90;;;;;;6194341;23;20259;-88
2022/12/18 05:23:26;;;;;;;31.95;12.55;;;-4.50;99.90;;;;;;6169857;23;20016;-88
2022/12/18 05:26:01;;;;;;;31.23;13.20;;;-4.50;99.90;;;;;;6219487;23;20020;-89
2022/12/18 05:28:29;;;;;;;34.00;12.60;;;-4.60;99.90;;;;;;6194214;23;20019;-89
2022/12/18 05:30:57;;;;;;;35.08;13.18;;;-4.50;99.90;;;;;;6194411;23;20020;-89
2022/12/18 05:33:25;;;;;;;35.05;13.10;;;-4.60;99.90;;;;;;6219300;23;20016;-89
2022/12/18 05:35:55;;;;;;;33.72;12.13;;;-4.60;99.90;;;;;;6194610;23;20016;-89
2022/12/18 05:38:22;;;;;;;37.10;13.00;;;-4.50;99.90;;;;;;6170414;23;20016;-89
2022/12/18 05:40:49;;;;;;;36.92;12.07;;;-4.60;99.90;;;;;;6219551;23;20054;-89
2022/12/18 05:43:15;;;;;;;29.90;13.27;;;-4.60;99.90;;;;;;6194386;23;20020;-88
2022/12/18 05:45:41;;;;;;;37.50;13.07;;;-4.60;99.90;;;;;;6170460;23;20035;-89
2022/12/18 05:48:09;;;;;;;29.27;11.70;;;-4.70;99.90;;;;;;6222575;23;20020;-89
2022/12/18 05:50:40;;;;;;;33.22;12.95;;;-4.60;99.90;;;;;;6222674;23;20016;-89
2022/12/18 05:53:06;;;;;;;36.33;12.20;;;-4.70;99.90;;;;;;6173329;23;20020;-89
2022/12/18 05:55:36;;;;;;;26.40;11.30;;;-4.60;99.90;;;;;;6197837;23;20055;-89
2022/12/18 05:58:03;;;;;;;28.38;11.93;;;-4.60;99.90;;;;;;6248045;23;20020;-89
2022/12/18 06:00:29;;;;;;;32.47;11.25;;;-4.60;99.90;;;;;;6197538;23;20020;-90
2022/12/18 06:02:55;;;;;;;33.47;11.95;;;-4.60;99.90;;;;;;6172786;23;20497;-89
2022/12/18 06:05:21;;;;;;;30.30;11.50;;;-4.60;99.90;;;;;;6198036;23;20019;-89
2022/12/18 06:07:47;;;;;;;33.50;11.68;;;-4.60;99.90;;;;;;6199412;23;20461;-89
2022/12/18 06:10:12;;;;;;;31.52;11.50;;;-4.70;99.90;;;;;;6191420;23;20012;-89
2022/12/18 06:12:38;;;;;;;32.35;12.38;;;-4.70;99.90;;;;;;6223745;23;20016;-89
2022/12/18 06:15:04;;;;;;;32.72;11.15;;;-4.70;99.90;;;;;;6223323;23;20054;-88
2022/12/18 06:17:31;;;;;;;25.63;11.40;;;-4.70;99.90;;;;;;6197174;23;20051;-89
2022/12/18 06:19:57;;;;;;;32.92;11.98;;;-4.80;99.90;;;;;;6222551;23;20409;-89
2022/12/18 06:22:23;;;;;;;30.42;11.93;;;-4.80;99.90;;;;;;6222595;23;20098;-88
2022/12/18 06:24:49;;;;;;;29.13;10.82;;;-4.80;99.90;;;;;;6197571;23;20026;-89
2022/12/18 06:27:15;;;;;;;28.13;10.75;;;-4.90;99.90;;;;;;6222626;23;20499;-89
2022/12/18 06:29:41;;;;;;;24.88;11.23;;;-4.90;99.90;;;;;;6222558;23;20020;-90
2022/12/18 06:32:07;;;;;;;26.85;10.43;;;-4.90;99.90;;;;;;6222616;23;20027;-89
2022/12/18 06:34:34;;;;;;;32.42;10.45;;;-5.00;99.90;;;;;;6222426;23;20012;-89
2022/12/18 06:36:59;;;;;;;26.60;10.98;;;-5.00;99.90;;;;;;6222639;23;20038;-88
2022/12/18 06:39:27;;;;;;;27.63;10.63;;;-5.00;99.90;;;;;;6222619;23;20457;-90
2022/12/18 06:41:53;;;;;;;24.00;10.00;;;-5.00;99.90;;;;;;6222791;23;20042;-89
2022/12/18 06:44:19;;;;;;;24.52;11.00;;;-5.10;99.90;;;;;;6222220;23;20481;-89
2022/12/18 06:46:45;;;;;;;25.58;11.20;;;-5.00;99.90;;;;;;6222473;23;20019;-88
2022/12/18 06:49:10;;;;;;;26.25;11.60;;;-5.00;99.90;;;;;;6222448;23;20047;-89
2022/12/18 06:51:36;;;;;;;26.58;11.15;;;-5.00;99.90;;;;;;6222476;23;20016;-88
2022/12/18 06:54:02;;;;;;;24.63;9.98;;;-5.00;99.90;;;;;;6222291;23;20103;-90
2022/12/18 06:56:28;;;;;;;27.17;10.15;;;-5.00;99.90;;;;;;6222441;23;20074;-89
2022/12/18 06:58:54;;;;;;;23.30;9.88;;;-5.00;99.90;;;;;;6220441;23;20028;-89
2022/12/18 07:01:20;;;;;;;26.83;10.57;;;-5.00;99.90;;;;;;6195784;23;20012;-89
2022/12/18 07:03:46;;;;;;;26.98;10.73;;;-4.90;99.90;;;;;;6195654;23;20396;-89
2022/12/18 07:06:17;;;;;;;23.95;9.55;;;-5.00;99.90;;;;;;6195810;23;20052;-89
2022/12/18 07:08:44;;;;;;;22.70;9.15;;;-4.90;99.90;;;;;;6220552;23;20315;-89
2022/12/18 07:11:10;;;;;;;21.45;8.23;;;-5.00;99.90;;;;;;6171314;23;20508;-89
2022/12/18 07:13:35;;;;;;;21.52;9.63;;;-4.90;99.90;;;;;;6195449;23;20019;-89
2022/12/18 07:16:09;;;;;;;22.20;9.20;;;-4.90;99.90;;;;;;6171081;23;20533;-88
2022/12/18 07:18:35;;;;;;;22.10;9.07;;;-4.90;99.90;;;;;;6195549;23;20016;-90
2022/12/18 07:21:06;;;;;;;19.90;9.60;;;-4.90;99.90;;;;;;6195566;23;20069;-89
2022/12/18 07:23:33;;;;;;;21.27;9.00;;;-4.90;99.90;;;;;;6195539;23;20016;-88
2022/12/18 07:26:06;;;;;;;;;;;-4.90;99.90;;;;;;6196002;23;20016;-89
2022/12/18 07:28:33;;;;;;;23.38;9.45;;;-4.90;99.90;;;;;;6195302;23;19990;-89
2022/12/18 07:31:06;;;;;;;24.38;10.00;;;-4.80;99.90;;;;;;6171164;23;20016;-89
2022/12/18 07:33:33;;;;;;;21.00;9.40;;;-4.80;99.90;;;;;;6220463;23;20013;-88
2022/12/18 07:36:00;;;;;;;27.50;9.73;;;-4.90;99.90;;;;;;6195368;23;20038;-88
2022/12/18 07:38:26;;;;;;;22.00;9.75;;;-4.90;99.90;;;;;;6220336;23;20009;-90
2022/12/18 07:40:51;;;;;;;24.17;10.00;;;-5.00;99.90;;;;;;6195575;23;20055;-89
2022/12/18 07:43:17;;;;;;;22.88;9.65;;;-5.00;99.90;;;;;;6170515;23;20023;-88
2022/12/18 07:45:43;;;;;;;23.60;10.00;;;-5.10;99.90;;;;;;6220460;23;20016;-88
2022/12/18 07:48:09;;;;;;;23.48;10.45;;;-5.20;99.90;;;;;;6195454;23;20441;-89
2022/12/18 07:50:35;;;;;;;20.65;9.25;;;-5.30;99.90;;;;;;6195168;23;20020;-88
2022/12/18 07:53:04;;;;;;;25.85;9.15;;;-5.30;99.90;;;;;;6170765;23;20103;-91
2022/12/18 07:55:31;;;;;;;20.73;9.23;;;-5.40;99.90;;;;;;6195368;23;20016;-90
2022/12/18 07:58:00;;;;;;;22.58;9.48;;;-5.40;99.90;;;;;;6195581;23;20047;-89
2022/12/18 08:00:25;;;;;;;22.52;9.23;;;-5.50;99.90;;;;;;6195441;23;20012;-89
2022/12/18 08:02:51;;;;;;;23.58;9.93;;;-5.50;99.90;;;;;;6195401;23;20024;-89
2022/12/18 08:05:17;;;;;;;24.27;9.93;;;-5.50;99.90;;;;;;6170592;23;20020;-90
2022/12/18 08:08:05;;;;;;;23.73;10.10;;;-5.40;99.90;;;;;;6170918;23;20016;-88
2022/12/18 08:10:30;;;;;;;25.40;9.77;;;-5.40;99.90;;;;;;6219286;23;20060;-88
2022/12/18 08:12:56;;;;;;;23.77;9.40;;;-5.30;99.90;;;;;;6195112;23;20028;-88
2022/12/18 08:15:23;;;;;;;22.13;8.98;;;-5.30;99.90;;;;;;6195264;23;20016;-88
2022/12/18 08:17:48;;;;;;;20.58;8.27;;;-5.30;99.90;;;;;;6194607;23;20472;-91
2022/12/18 08:20:14;;;;;;;23.07;9.97;;;-5.20;99.90;;;;;;6168103;23;20020;-88
2022/12/18 08:23:36;;;;;;;24.00;9.40;;;-5.20;99.90;;;;;;6144100;23;20020;-88
2022/12/18 08:26:27;;;;;;;23.27;9.53;;;-5.20;99.90;;;;;;6193799;23;20020;-90
2022/12/18 08:28:55;;;;;;;22.13;10.20;;;-5.10;99.90;;;;;;6194849;23;20020;-91
2022/12/18 08:31:21;;;;;;;23.30;9.25;;;-5.20;99.90;;;;;;6194005;23;20095;-88
2022/12/18 08:33:52;;;;;;;24.30;9.68;;;-5.20;99.90;;;;;;6219928;23;20027;-88
2022/12/18 08:36:39;;;;;;;23.70;9.90;;;-5.20;99.90;;;;;;6194915;23;20142;-88
2022/12/18 08:39:05;;;;;;;20.30;10.02;;;-5.30;99.90;;;;;;6194996;23;20016;-90
2022/12/18 08:41:31;;;;;;;27.05;10.52;;;-5.30;99.90;;;;;;6194803;23;20023;-88
2022/12/18 08:46:43;;;;;;;20.20;9.80;;;-5.30;99.90;;;;;;6219898;23;20074;-87
2022/12/18 08:49:10;;;;;;;22.60;9.00;;;-5.20;99.90;;;;;;6194757;23;20070;-90
2022/12/18 08:51:36;;;;;;;23.00;9.27;;;-5.20;99.90;;;;;;6220076;23;20016;-91
2022/12/18 08:54:02;;;;;;;21.70;9.45;;;-5.10;99.90;;;;;;6195226;23;20016;-89
2022/12/18 08:56:29;;;;;;;21.17;9.10;;;-5.10;99.90;;;;;;6195014;23;20020;-90
2022/12/18 08:58:55;;;;;;;;;;;-5.00;99.90;;;;;;6195509;23;20062;-90
2022/12/18 09:01:22;;;;;;;20.60;9.00;;;-4.90;99.90;;;;;;6194876;23;19916;-89
2022/12/18 09:03:51;;;;;;;22.67;9.50;;;-4.80;99.90;;;;;;6170329;23;20098;-89
2022/12/18 09:06:37;;;;;;;21.23;9.20;;;-4.80;99.90;;;;;;6195844;23;20095;-89
2022/12/18 09:09:04;;;;;;;19.55;9.23;;;-4.80;99.90;;;;;;6195213;23;20514;-89
2022/12/18 09:11:30;;;;;;;;;;;-4.70;99.90;;;;;;6220445;23;20020;-88
2022/12/18 09:13:56;;;;;;;19.58;9.20;;;-4.60;99.90;;;;;;6219928;23;19947;-88
2022/12/18 09:16:24;;;;;;;22.27;9.90;;;-4.60;99.90;;;;;;6220018;23;20017;-89
2022/12/18 09:18:49;;;;;;;;;;;-4.60;99.90;;;;;;6220268;23;20345;-88
2022/12/18 09:21:17;;;;;;;23.40;9.60;;;-4.50;99.90;;;;;;6220156;23;19961;-89
2022/12/18 09:23:43;;;;;;;18.98;8.63;;;-4.40;99.90;;;;;;6194766;23;20074;-88
2022/12/18 09:26:09;;;;;;;20.75;9.30;;;-4.30;99.90;;;;;;6220000;23;20020;-88
2022/12/18 09:28:35;;;;;;;19.10;9.30;;;-4.30;99.90;;;;;;6218251;23;20016;-89
2022/12/18 09:31:07;;;;;;;20.85;8.88;;;-4.20;99.90;;;;;;6217945;23;20110;-88
2022/12/18 09:33:34;;;;;;;16.67;8.30;;;-4.20;99.90;;;;;;6219744;23;20104;-88
2022/12/18 09:36:02;;;;;;;16.90;7.68;;;-4.20;99.90;;;;;;6218568;23;20016;-89
2022/12/18 09:38:27;;;;;;;16.95;7.97;;;-4.10;99.90;;;;;;6218457;23;20024;-88
2022/12/18 09:41:19;;;;;;;17.98;8.38;;;-4.10;99.90;;;;;;6219385;23;20066;-88
2022/12/18 09:43:55;;;;;;;20.88;8.60;;;-4.00;99.90;;;;;;6171277;23;20043;-89
2022/12/18 09:46:34;;;;;;;18.63;7.97;;;-3.90;99.90;;;;;;6220023;23;20019;-88
2022/12/18 09:49:05;;;;;;;17.77;8.13;;;-3.80;99.90;;;;;;6219659;23;20465;-88
2022/12/18 09:51:43;;;;;;;15.93;6.82;;;-3.70;99.90;;;;;;6219713;23;20016;-88
2022/12/18 09:54:26;;;;;;;19.05;6.80;;;-3.70;99.90;;;;;;6219880;23;20016;-89
2022/12/18 09:56:52;;;;;;;19.15;7.75;;;-3.70;99.90;;;;;;6219598;23;20019;-87
2022/12/18 09:59:36;;;;;;;15.07;6.78;;;-3.70;99.90;;;;;;6218725;23;20051;-89
2022/12/18 10:02:23;;;;;;;15.23;7.15;;;-3.70;99.90;;;;;;6218051;23;20013;-88
2022/12/18 10:05:05;;;;;;;14.07;6.07;;;-3.60;99.90;;;;;;6218463;23;20119;-90
2022/12/18 10:08:13;;;;;;;14.07;6.70;;;-3.60;99.90;;;;;;6244954;23;20051;-88
2022/12/18 10:10:54;;;;;;;16.10;6.93;;;-3.60;99.90;;;;;;6240995;23;20346;-86
2022/12/18 10:13:41;;;;;;;13.73;6.45;;;-3.50;99.90;;;;;;6245861;22;20024;-86
2022/12/18 10:16:13;;;;;;;13.63;6.10;;;-3.50;99.90;;;;;;6245875;22;20016;-87
2022/12/18 10:18:57;;;;;;;14.45;5.43;;;-3.40;99.90;;;;;;6244285;23;20319;-88
2022/12/18 10:21:40;;;;;;;12.10;5.82;;;-3.40;99.90;;;;;;6219072;23;20051;-87
2022/12/18 10:24:12;;;;;;;14.18;5.25;;;-3.30;99.90;;;;;;6245815;23;20020;-87
2022/12/18 10:26:40;;;;;;;13.27;5.75;;;-3.20;99.90;;;;;;6219298;23;20065;-88
2022/12/18 10:29:13;;;;;;;12.63;5.78;;;-3.20;99.90;;;;;;6219286;23;20338;-87
2022/12/18 10:31:39;;;;;;;13.85;7.18;;;-3.10;99.90;;;;;;6219061;23;20448;-87
2022/12/18 10:34:09;;;;;;;10.75;5.43;;;-3.00;99.90;;;;;;6196017;23;20015;-91
2022/12/18 10:36:35;;;;;;;13.07;5.80;;;-3.00;99.90;;;;;;6222028;23;20016;-88
2022/12/18 10:39:16;;;;;;;13.43;6.15;;;-3.00;99.90;;;;;;6221792;23;20016;-88
2022/12/18 10:41:41;;;;;;;12.65;5.47;;;-2.90;99.90;;;;;;6221730;23;20016;-89
2022/12/18 10:44:21;;;;;;;10.63;5.25;;;-2.90;99.90;;;;;;6223738;23;20074;-93
2022/12/18 10:46:55;;;;;;;11.93;5.40;;;-2.80;99.90;;;;;;6225410;23;20020;-88
2022/12/18 10:49:23;;;;;;;13.57;5.57;;;-2.90;99.90;;;;;;6225216;23;20505;-87
2022/12/18 10:51:50;;;;;;;11.15;5.57;;;-2.80;99.90;;;;;;6221938;23;20019;-88
2022/12/18 10:54:21;;;;;;;11.63;5.25;;;-2.80;99.90;;;;;;6221777;23;20012;-88
2022/12/18 10:56:47;;;;;;;13.60;5.55;;;-2.80;99.90;;;;;;6221022;23;20012;-91
2022/12/18 10:59:17;;;;;;;12.75;4.95;;;-2.80;99.90;;;;;;6246576;23;20349;-90
2022/12/18 11:01:53;;;;;;;10.40;4.93;;;-2.80;99.90;;;;;;6221134;23;20095;-89
2022/12/18 11:04:28;;;;;;;13.25;5.72;;;-2.80;99.90;;;;;;6220946;23;20024;-89
2022/12/18 11:07:05;;;;;;;13.15;6.10;;;-2.80;99.90;;;;;;6221103;23;20089;-88
2022/12/18 11:09:36;;;;;;;12.45;5.78;;;-2.80;99.90;;;;;;6220930;23;20066;-91
2022/12/18 11:12:06;;;;;;;10.88;5.88;;;-2.70;99.90;;;;;;6195740;23;20019;-90
2022/12/18 11:14:53;;;;;;;11.63;5.90;;;-2.70;99.90;;;;;;6220808;23;20341;-90
2022/12/18 11:17:46;;;;;;;13.07;5.90;;;-2.70;99.90;;;;;;6220775;23;20066;-88
2022/12/18 11:20:38;;;;;;;11.23;5.97;;;-2.60;99.90;;;;;;6220522;23;20020;-88
2022/12/18 11:23:11;;;;;;;12.68;6.28;;;-2.60;99.90;;;;;;6220653;23;20145;-88
2022/12/18 11:25:38;;;;;;;15.68;6.47;;;-2.60;99.90;;;;;;6220597;23;20020;-88
2022/12/18 11:28:05;;;;;;;13.48;7.05;;;-2.60;99.90;;;;;;6196079;23;20017;-87
2022/12/18 11:30:40;;;;;;;;;;;-2.50;99.90;;;;;;6220892;23;20020;-87
2022/12/18 11:33:39;;;;;;;12.63;6.22;;;-2.50;99.90;;;;;;6220788;23;19962;-88
2022/12/18 11:36:35;;;;;;;;;;;-2.50;99.90;;;;;;6221478;23;20457;-87
2022/12/18 11:39:24;;;;;;;10.93;5.40;;;-2.50;99.90;;;;;;6220988;23;19931;-88
2022/12/18 11:42:11;;;;;;;8.98;4.53;;;-2.40;99.90;;;;;;6221641;23;20090;-88
2022/12/18 11:44:48;;;;;;;9.20;4.63;;;-2.40;99.90;;;;;;6244467;23;20046;-87
2022/12/18 11:47:20;;;;;;;10.32;4.68;;;-2.30;99.90;;;;;;6246199;23;20020;-88
2022/12/18 11:49:49;;;;;;;10.05;4.88;;;-2.30;99.90;;;;;;6221145;23;20350;-86
2022/12/18 11:52:39;;;;;;;8.05;4.38;;;-2.30;99.90;;;;;;6220867;23;20091;-88
2022/12/18 11:55:11;;;;;;;9.85;4.43;;;-2.30;99.90;;;;;;6207880;23;20446;-91
2022/12/18 11:57:42;;;;;;;9.00;3.70;;;-2.20;99.90;;;;;;6221110;23;20047;-87
2022/12/18 12:00:18;;;;;;;7.57;3.70;;;-2.20;99.90;;;;;;6221204;23;20027;-86
2022/12/18 12:03:02;;;;;;;7.40;3.40;;;-2.20;99.90;;;;;;6221270;23;20098;-91
2022/12/18 12:05:36;;;;;;;8.00;2.88;;;-2.20;99.90;;;;;;6221327;23;20031;-92
2022/12/18 12:09:06;;;;;;;8.50;3.53;;;-2.20;99.90;;;;;;6176611;23;20055;-93
2022/12/18 12:11:50;;;;;;;9.52;3.63;;;-2.10;99.90;;;;;;6221160;23;20020;-92
2022/12/18 12:15:09;;;;;;;7.97;3.70;;;-2.10;99.90;;;;;;6221164;23;20029;-92
2022/12/18 12:21:29;;;;;;;5.85;2.80;;;-2.10;99.90;;;;;;6101367;23;20025;-90
2022/12/18 12:24:32;;;;;;;7.50;3.17;;;-2.10;99.90;;;;;;6076854;23;20053;-94
2022/12/18 12:27:41;;;;;;;7.20;3.38;;;-2.10;99.90;;;;;;6135821;23;20017;-90
2022/12/18 12:30:09;;;;;;;7.18;3.35;;;-2.00;99.90;;;;;;6173683;23;20110;-87
2022/12/18 12:32:49;;;;;;;8.50;4.00;;;-2.00;99.90;;;;;;6246108;23;20547;-88
2022/12/18 12:35:37;;;;;;;5.57;2.58;;;-2.00;99.90;;;;;;6221141;23;20019;-93
2022/12/18 12:38:26;;;;;;;9.85;4.38;;;-1.90;99.90;;;;;;6221232;23;20071;-93
2022/12/18 12:40:54;;;;;;;7.45;3.08;;;-1.90;99.90;;;;;;6209178;23;20020;-93
2022/12/18 12:43:49;;;;;;;6.55;2.60;;;-1.90;99.90;;;;;;6221552;23;20257;-89
2022/12/18 13:15:37;;;;;;;5.47;2.15;;;-1.70;99.90;;;;;;6277542;22;20019;-88
2022/12/18 13:18:09;;;;;;;6.38;2.53;;;-1.60;99.90;;;;;;6278158;22;20026;-89
2022/12/18 13:20:37;;;;;;;7.47;2.80;;;-1.60;99.90;;;;;;6250542;22;20072;-90
2022/12/18 13:23:24;;;;;;;5.97;3.10;;;-1.60;99.90;;;;;;6250622;22;20015;-90
2022/12/18 13:25:51;;;;;;;5.28;2.25;;;-1.50;99.90;;;;;;6250780;22;20019;-91
2022/12/18 13:28:21;;;;;;;6.30;2.70;;;-1.50;99.90;;;;;;6276384;22;20015;-90
2022/12/18 13:30:56;;;;;;;6.15;2.42;;;-1.50;99.90;;;;;;6250471;22;20012;-87
2022/12/18 13:33:25;;;;;;;6.65;2.80;;;-1.50;99.90;;;;;;6275466;22;20495;-86
2022/12/18 13:35:53;;;;;;;7.80;2.70;;;-1.50;99.90;;;;;;6275894;22;20518;-89
2022/12/18 13:38:34;;;;;;;4.25;1.95;;;-1.40;99.90;;;;;;6277294;22;20449;-92
2022/12/18 13:41:29;;;;;;;6.93;2.45;;;-1.40;99.90;;;;;;6252197;22;20015;-92
2022/12/18 13:58:14;;;;;;;10.88;2.95;;;-1.40;99.90;;;;;;6307717;22;20043;-88
2022/12/18 14:01:21;;;;;;;5.15;2.15;;;-1.40;99.90;;;;;;6254263;22;20027;-91